sensor_id;sensor_type;location;lat;lon;timestamp;P1;durP1;ratioP1;P2;durP2;ratioP2
60416;SDS011;46263;44.726;10.396;2023-05-27T00:02:21;6.20;;;5.63;;
60416;SDS011;46263;44.726;10.396;2023-05-27T00:04:47;8.38;;;5.97;;
60416;SDS011;46263;44.726;10.396;2023-05-27T00:07:12;11.02;;;6.38;;
60416;SDS011;46263;44.726;10.396;2023-05-27T00:09:38;5.65;;;5.15;;
60416;SDS011;46263;44.726;10.396;2023-05-27T00:12:04;11.52;;;6.03;;
60416;SDS011;46263;44.726;10.396;2023-05-27T00:14:30;7.57;;;5.88;;
60416;SDS011;46263;44.726;10.396;2023-05-27T00:16:55;6.78;;;5.32;;
60416;SDS011;46263;44.726;10.396;2023-05-27T00:19:21;6.82;;;5.53;;
60416;SDS011;46263;44.726;10.396;2023-05-27T00:21:48;8.20;;;5.75;;
60416;SDS011;46263;44.726;10.396;2023-05-27T00:24:17;9.27;;;5.82;;
60416;SDS011;46263;44.726;10.396;2023-05-27T00:26:43;7.80;;;5.75;;
60416;SDS011;46263;44.726;10.396;2023-05-27T00:29:08;9.98;;;5.80;;
60416;SDS011;46263;44.726;10.396;2023-05-27T00:31:34;7.30;;;5.25;;
60416;SDS011;46263;44.726;10.396;2023-05-27T00:33:59;7.95;;;5.50;;
60416;SDS011;46263;44.726;10.396;2023-05-27T00:36:25;6.88;;;5.90;;
60416;SDS011;46263;44.726;10.396;2023-05-27T00:38:51;9.18;;;5.45;;
60416;SDS011;46263;44.726;10.396;2023-05-27T00:41:16;9.38;;;5.78;;
60416;SDS011;46263;44.726;10.396;2023-05-27T00:43:43;8.95;;;5.43;;
60416;SDS011;46263;44.726;10.396;2023-05-27T00:46:08;6.72;;;5.35;;
60416;SDS011;46263;44.726;10.396;2023-05-27T00:48:34;6.50;;;5.25;;
60416;SDS011;46263;44.726;10.396;2023-05-27T00:51:00;8.63;;;5.90;;
60416;SDS011;46263;44.726;10.396;2023-05-27T00:53:26;7.18;;;5.80;;
60416;SDS011;46263;44.726;10.396;2023-05-27T00:55:53;7.63;;;6.15;;
60416;SDS011;46263;44.726;10.396;2023-05-27T00:58:19;14.18;;;6.30;;
60416;SDS011;46263;44.726;10.396;2023-05-27T01:00:47;10.93;;;6.30;;
60416;SDS011;46263;44.726;10.396;2023-05-27T01:03:13;8.95;;;6.10;;
60416;SDS011;46263;44.726;10.396;2023-05-27T01:05:40;7.03;;;6.40;;
60416;SDS011;46263;44.726;10.396;2023-05-27T01:11:06;7.63;;;5.38;;
60416;SDS011;46263;44.726;10.396;2023-05-27T01:16:17;9.02;;;5.22;;
60416;SDS011;46263;44.726;10.396;2023-05-27T01:18:46;7.28;;;5.28;;
60416;SDS011;46263;44.726;10.396;2023-05-27T01:21:16;9.32;;;5.88;;
60416;SDS011;46263;44.726;10.396;2023-05-27T01:23:45;6.05;;;5.07;;
60416;SDS011;46263;44.726;10.396;2023-05-27T01:26:12;6.90;;;4.70;;
60416;SDS011;46263;44.726;10.396;2023-05-27T01:28:37;8.02;;;5.07;;
60416;SDS011;46263;44.726;10.396;2023-05-27T01:31:17;5.97;;;5.32;;
60416;SDS011;46263;44.726;10.396;2023-05-27T01:33:59;11.68;;;5.47;;
60416;SDS011;46263;44.726;10.396;2023-05-27T01:36:29;8.20;;;4.97;;
60416;SDS011;46263;44.726;10.396;2023-05-27T01:38:58;5.80;;;5.25;;
60416;SDS011;46263;44.726;10.396;2023-05-27T01:41:25;5.30;;;4.53;;
60416;SDS011;46263;44.726;10.396;2023-05-27T01:43:51;6.32;;;4.90;;
60416;SDS011;46263;44.726;10.396;2023-05-27T01:46:18;7.00;;;5.15;;
60416;SDS011;46263;44.726;10.396;2023-05-27T01:48:43;8.85;;;5.20;;
60416;SDS011;46263;44.726;10.396;2023-05-27T01:51:09;6.28;;;4.85;;
60416;SDS011;46263;44.726;10.396;2023-05-27T01:53:35;5.18;;;4.68;;
60416;SDS011;46263;44.726;10.396;2023-05-27T01:56:00;7.90;;;5.10;;
60416;SDS011;46263;44.726;10.396;2023-05-27T01:58:26;7.53;;;5.32;;
60416;SDS011;46263;44.726;10.396;2023-05-27T02:00:52;5.75;;;5.20;;
60416;SDS011;46263;44.726;10.396;2023-05-27T02:03:17;8.88;;;5.38;;
60416;SDS011;46263;44.726;10.396;2023-05-27T02:05:43;8.98;;;5.75;;
60416;SDS011;46263;44.726;10.396;2023-05-27T02:08:09;11.82;;;6.35;;
60416;SDS011;46263;44.726;10.396;2023-05-27T02:10:35;7.22;;;6.07;;
60416;SDS011;46263;44.726;10.396;2023-05-27T02:13:00;7.82;;;6.07;;
60416;SDS011;46263;44.726;10.396;2023-05-27T02:15:26;8.35;;;6.05;;
60416;SDS011;46263;44.726;10.396;2023-05-27T02:17:51;10.05;;;6.45;;
60416;SDS011;46263;44.726;10.396;2023-05-27T02:20:20;7.75;;;6.78;;
60416;SDS011;46263;44.726;10.396;2023-05-27T02:22:49;6.85;;;6.20;;
60416;SDS011;46263;44.726;10.396;2023-05-27T02:25:15;9.88;;;6.72;;
60416;SDS011;46263;44.726;10.396;2023-05-27T02:27:40;10.35;;;7.00;;
60416;SDS011;46263;44.726;10.396;2023-05-27T02:30:08;7.68;;;6.25;;
60416;SDS011;46263;44.726;10.396;2023-05-27T02:32:35;11.93;;;5.97;;
60416;SDS011;46263;44.726;10.396;2023-05-27T02:35:00;10.95;;;6.40;;
60416;SDS011;46263;44.726;10.396;2023-05-27T02:37:26;15.70;;;7.03;;
60416;SDS011;46263;44.726;10.396;2023-05-27T02:39:52;8.05;;;6.78;;
60416;SDS011;46263;44.726;10.396;2023-05-27T02:42:18;9.75;;;6.43;;
60416;SDS011;46263;44.726;10.396;2023-05-27T02:44:44;10.32;;;6.97;;
60416;SDS011;46263;44.726;10.396;2023-05-27T02:47:09;10.10;;;7.28;;
60416;SDS011;46263;44.726;10.396;2023-05-27T02:49:35;12.50;;;7.13;;
60416;SDS011;46263;44.726;10.396;2023-05-27T02:52:01;11.27;;;7.65;;
60416;SDS011;46263;44.726;10.396;2023-05-27T02:54:26;12.05;;;8.02;;
60416;SDS011;46263;44.726;10.396;2023-05-27T02:56:52;9.80;;;8.65;;
60416;SDS011;46263;44.726;10.396;2023-05-27T02:59:17;13.82;;;10.27;;
60416;SDS011;46263;44.726;10.396;2023-05-27T03:01:42;13.73;;;9.77;;
60416;SDS011;46263;44.726;10.396;2023-05-27T03:04:08;13.00;;;10.57;;
60416;SDS011;46263;44.726;10.396;2023-05-27T03:06:33;15.98;;;11.23;;
60416;SDS011;46263;44.726;10.396;2023-05-27T03:08:59;14.75;;;11.15;;
60416;SDS011;46263;44.726;10.396;2023-05-27T03:11:24;17.15;;;11.70;;
60416;SDS011;46263;44.726;10.396;2023-05-27T03:13:51;13.07;;;11.45;;
60416;SDS011;46263;44.726;10.396;2023-05-27T03:16:16;14.88;;;11.50;;
60416;SDS011;46263;44.726;10.396;2023-05-27T03:18:44;18.95;;;12.57;;
60416;SDS011;46263;44.726;10.396;2023-05-27T03:21:10;17.17;;;12.52;;
60416;SDS011;46263;44.726;10.396;2023-05-27T03:23:36;14.35;;;11.15;;
60416;SDS011;46263;44.726;10.396;2023-05-27T03:26:02;16.95;;;11.55;;
60416;SDS011;46263;44.726;10.396;2023-05-27T03:28:27;15.32;;;9.43;;
60416;SDS011;46263;44.726;10.396;2023-05-27T03:30:53;19.65;;;9.88;;
60416;SDS011;46263;44.726;10.396;2023-05-27T03:33:21;14.85;;;10.63;;
60416;SDS011;46263;44.726;10.396;2023-05-27T03:35:50;13.13;;;10.48;;
60416;SDS011;46263;44.726;10.396;2023-05-27T03:38:15;13.18;;;9.80;;
60416;SDS011;46263;44.726;10.396;2023-05-27T03:40:41;11.93;;;10.23;;
60416;SDS011;46263;44.726;10.396;2023-05-27T03:43:06;16.10;;;10.57;;
60416;SDS011;46263;44.726;10.396;2023-05-27T03:45:32;18.23;;;11.10;;
60416;SDS011;46263;44.726;10.396;2023-05-27T03:47:57;17.77;;;11.93;;
60416;SDS011;46263;44.726;10.396;2023-05-27T03:50:23;16.02;;;12.68;;
60416;SDS011;46263;44.726;10.396;2023-05-27T03:52:48;19.90;;;13.35;;
60416;SDS011;46263;44.726;10.396;2023-05-27T03:55:15;17.60;;;14.32;;
60416;SDS011;46263;44.726;10.396;2023-05-27T03:57:42;21.67;;;13.95;;
60416;SDS011;46263;44.726;10.396;2023-05-27T04:00:08;19.45;;;14.77;;
60416;SDS011;46263;44.726;10.396;2023-05-27T04:02:36;22.52;;;14.75;;
60416;SDS011;46263;44.726;10.396;2023-05-27T04:05:02;22.80;;;16.50;;
60416;SDS011;46263;44.726;10.396;2023-05-27T04:07:28;24.27;;;17.00;;
60416;SDS011;46263;44.726;10.396;2023-05-27T04:09:53;22.15;;;16.08;;
60416;SDS011;46263;44.726;10.396;2023-05-27T04:12:19;20.95;;;15.50;;
60416;SDS011;46263;44.726;10.396;2023-05-27T04:14:45;19.75;;;16.33;;
60416;SDS011;46263;44.726;10.396;2023-05-27T04:17:11;21.15;;;16.20;;
60416;SDS011;46263;44.726;10.396;2023-05-27T04:19:38;21.30;;;14.15;;
60416;SDS011;46263;44.726;10.396;2023-05-27T04:22:04;16.67;;;12.32;;
60416;SDS011;46263;44.726;10.396;2023-05-27T04:24:29;17.50;;;13.55;;
60416;SDS011;46263;44.726;10.396;2023-05-27T04:26:55;15.27;;;11.45;;
60416;SDS011;46263;44.726;10.396;2023-05-27T04:29:20;16.08;;;9.93;;
60416;SDS011;46263;44.726;10.396;2023-05-27T04:31:47;11.57;;;9.13;;
60416;SDS011;46263;44.726;10.396;2023-05-27T04:34:13;11.93;;;9.40;;
60416;SDS011;46263;44.726;10.396;2023-05-27T04:36:39;12.10;;;8.85;;
60416;SDS011;46263;44.726;10.396;2023-05-27T04:39:04;12.20;;;8.40;;
60416;SDS011;46263;44.726;10.396;2023-05-27T04:41:30;10.82;;;8.65;;
60416;SDS011;46263;44.726;10.396;2023-05-27T04:43:58;11.88;;;8.45;;
60416;SDS011;46263;44.726;10.396;2023-05-27T04:46:26;11.18;;;8.63;;
60416;SDS011;46263;44.726;10.396;2023-05-27T04:48:52;10.50;;;7.57;;
60416;SDS011;46263;44.726;10.396;2023-05-27T04:51:17;10.07;;;8.10;;
60416;SDS011;46263;44.726;10.396;2023-05-27T04:53:44;12.02;;;8.77;;
60416;SDS011;46263;44.726;10.396;2023-05-27T04:56:10;14.90;;;8.50;;
60416;SDS011;46263;44.726;10.396;2023-05-27T04:58:40;15.50;;;8.98;;
60416;SDS011;46263;44.726;10.396;2023-05-27T05:01:08;13.00;;;8.90;;
60416;SDS011;46263;44.726;10.396;2023-05-27T05:03:42;13.40;;;9.25;;
60416;SDS011;46263;44.726;10.396;2023-05-27T05:06:17;12.07;;;9.70;;
60416;SDS011;46263;44.726;10.396;2023-05-27T05:08:44;12.82;;;9.90;;
60416;SDS011;46263;44.726;10.396;2023-05-27T05:11:09;13.13;;;9.77;;
60416;SDS011;46263;44.726;10.396;2023-05-27T05:13:35;14.43;;;9.80;;
60416;SDS011;46263;44.726;10.396;2023-05-27T05:16:00;12.27;;;9.80;;
60416;SDS011;46263;44.726;10.396;2023-05-27T05:18:25;15.00;;;10.15;;
60416;SDS011;46263;44.726;10.396;2023-05-27T05:20:51;11.95;;;9.50;;
60416;SDS011;46263;44.726;10.396;2023-05-27T05:23:16;13.40;;;9.68;;
60416;SDS011;46263;44.726;10.396;2023-05-27T05:25:42;15.02;;;9.95;;
60416;SDS011;46263;44.726;10.396;2023-05-27T05:28:08;12.75;;;9.95;;
60416;SDS011;46263;44.726;10.396;2023-05-27T05:30:33;13.35;;;10.43;;
60416;SDS011;46263;44.726;10.396;2023-05-27T05:32:58;12.60;;;9.65;;
60416;SDS011;46263;44.726;10.396;2023-05-27T05:35:24;14.57;;;10.32;;
60416;SDS011;46263;44.726;10.396;2023-05-27T05:37:50;13.30;;;10.02;;
60416;SDS011;46263;44.726;10.396;2023-05-27T05:40:15;12.75;;;9.82;;
60416;SDS011;46263;44.726;10.396;2023-05-27T05:42:41;14.35;;;11.27;;
60416;SDS011;46263;44.726;10.396;2023-05-27T05:45:06;15.95;;;10.55;;
60416;SDS011;46263;44.726;10.396;2023-05-27T05:47:32;11.82;;;9.80;;
60416;SDS011;46263;44.726;10.396;2023-05-27T05:49:58;13.18;;;10.70;;
60416;SDS011;46263;44.726;10.396;2023-05-27T05:52:24;14.23;;;10.75;;
60416;SDS011;46263;44.726;10.396;2023-05-27T05:54:50;13.85;;;10.88;;
60416;SDS011;46263;44.726;10.396;2023-05-27T05:57:16;14.38;;;10.75;;
60416;SDS011;46263;44.726;10.396;2023-05-27T05:59:42;14.80;;;11.70;;
60416;SDS011;46263;44.726;10.396;2023-05-27T06:02:07;13.25;;;10.52;;
60416;SDS011;46263;44.726;10.396;2023-05-27T06:04:33;14.77;;;11.02;;
60416;SDS011;46263;44.726;10.396;2023-05-27T06:06:58;14.25;;;11.02;;
60416;SDS011;46263;44.726;10.396;2023-05-27T06:09:24;17.15;;;10.65;;
60416;SDS011;46263;44.726;10.396;2023-05-27T06:11:50;17.27;;;11.02;;
60416;SDS011;46263;44.726;10.396;2023-05-27T06:14:15;13.70;;;10.05;;
60416;SDS011;46263;44.726;10.396;2023-05-27T06:16:41;13.98;;;11.35;;
60416;SDS011;46263;44.726;10.396;2023-05-27T06:19:06;13.52;;;10.93;;
60416;SDS011;46263;44.726;10.396;2023-05-27T06:21:32;12.52;;;10.98;;
60416;SDS011;46263;44.726;10.396;2023-05-27T06:23:58;15.52;;;11.38;;
60416;SDS011;46263;44.726;10.396;2023-05-27T06:26:25;15.35;;;11.18;;
60416;SDS011;46263;44.726;10.396;2023-05-27T06:28:52;16.42;;;11.88;;
60416;SDS011;46263;44.726;10.396;2023-05-27T06:31:18;15.90;;;11.48;;
60416;SDS011;46263;44.726;10.396;2023-05-27T06:33:44;17.05;;;11.70;;
60416;SDS011;46263;44.726;10.396;2023-05-27T06:36:09;14.80;;;11.90;;
60416;SDS011;46263;44.726;10.396;2023-05-27T06:38:34;17.17;;;11.82;;
60416;SDS011;46263;44.726;10.396;2023-05-27T06:41:00;15.02;;;12.00;;
60416;SDS011;46263;44.726;10.396;2023-05-27T06:43:25;15.32;;;12.25;;
60416;SDS011;46263;44.726;10.396;2023-05-27T06:45:51;16.00;;;10.80;;
60416;SDS011;46263;44.726;10.396;2023-05-27T06:48:16;14.88;;;11.70;;
60416;SDS011;46263;44.726;10.396;2023-05-27T06:50:42;16.40;;;12.13;;
60416;SDS011;46263;44.726;10.396;2023-05-27T06:53:07;18.02;;;11.55;;
60416;SDS011;46263;44.726;10.396;2023-05-27T06:55:32;15.57;;;11.48;;
60416;SDS011;46263;44.726;10.396;2023-05-27T06:57:58;16.90;;;12.23;;
60416;SDS011;46263;44.726;10.396;2023-05-27T07:00:23;13.18;;;10.30;;
60416;SDS011;46263;44.726;10.396;2023-05-27T07:02:49;15.98;;;11.88;;
60416;SDS011;46263;44.726;10.396;2023-05-27T07:05:14;21.00;;;11.55;;
60416;SDS011;46263;44.726;10.396;2023-05-27T07:07:40;14.02;;;10.90;;
60416;SDS011;46263;44.726;10.396;2023-05-27T07:10:05;14.27;;;11.60;;
60416;SDS011;46263;44.726;10.396;2023-05-27T07:12:31;16.35;;;11.15;;
60416;SDS011;46263;44.726;10.396;2023-05-27T07:14:57;15.18;;;10.23;;
60416;SDS011;46263;44.726;10.396;2023-05-27T07:17:22;12.85;;;10.27;;
60416;SDS011;46263;44.726;10.396;2023-05-27T07:19:48;16.67;;;11.02;;
60416;SDS011;46263;44.726;10.396;2023-05-27T07:22:13;14.65;;;10.65;;
60416;SDS011;46263;44.726;10.396;2023-05-27T07:24:38;15.32;;;11.07;;
60416;SDS011;46263;44.726;10.396;2023-05-27T07:27:04;15.50;;;10.85;;
60416;SDS011;46263;44.726;10.396;2023-05-27T07:29:30;15.00;;;10.98;;
60416;SDS011;46263;44.726;10.396;2023-05-27T07:31:55;17.13;;;10.77;;
60416;SDS011;46263;44.726;10.396;2023-05-27T07:34:21;16.05;;;11.52;;
60416;SDS011;46263;44.726;10.396;2023-05-27T07:36:47;15.80;;;11.80;;
60416;SDS011;46263;44.726;10.396;2023-05-27T07:39:13;16.58;;;11.55;;
60416;SDS011;46263;44.726;10.396;2023-05-27T07:41:38;18.27;;;11.15;;
60416;SDS011;46263;44.726;10.396;2023-05-27T07:44:04;15.38;;;11.48;;
60416;SDS011;46263;44.726;10.396;2023-05-27T07:46:29;16.05;;;11.98;;
60416;SDS011;46263;44.726;10.396;2023-05-27T07:48:55;16.10;;;11.55;;
60416;SDS011;46263;44.726;10.396;2023-05-27T07:51:20;17.67;;;12.27;;
60416;SDS011;46263;44.726;10.396;2023-05-27T07:53:48;19.63;;;12.88;;
60416;SDS011;46263;44.726;10.396;2023-05-27T07:56:13;17.85;;;12.20;;
60416;SDS011;46263;44.726;10.396;2023-05-27T07:58:39;17.02;;;12.60;;
60416;SDS011;46263;44.726;10.396;2023-05-27T08:01:05;17.25;;;13.02;;
60416;SDS011;46263;44.726;10.396;2023-05-27T08:03:30;19.95;;;13.15;;
60416;SDS011;46263;44.726;10.396;2023-05-27T08:05:56;19.65;;;14.63;;
60416;SDS011;46263;44.726;10.396;2023-05-27T08:08:21;15.60;;;12.32;;
60416;SDS011;46263;44.726;10.396;2023-05-27T08:10:46;17.20;;;14.23;;
60416;SDS011;46263;44.726;10.396;2023-05-27T08:13:12;16.92;;;12.93;;
60416;SDS011;46263;44.726;10.396;2023-05-27T08:15:37;18.90;;;14.75;;
60416;SDS011;46263;44.726;10.396;2023-05-27T08:18:03;26.23;;;15.23;;
60416;SDS011;46263;44.726;10.396;2023-05-27T08:20:28;19.80;;;15.07;;
60416;SDS011;46263;44.726;10.396;2023-05-27T08:22:54;24.60;;;15.25;;
60416;SDS011;46263;44.726;10.396;2023-05-27T08:25:19;18.77;;;15.55;;
60416;SDS011;46263;44.726;10.396;2023-05-27T08:30:18;20.55;;;14.30;;
60416;SDS011;46263;44.726;10.396;2023-05-27T08:32:44;19.02;;;14.63;;
60416;SDS011;46263;44.726;10.396;2023-05-27T08:35:11;18.52;;;13.45;;
60416;SDS011;46263;44.726;10.396;2023-05-27T08:37:37;16.88;;;13.00;;
60416;SDS011;46263;44.726;10.396;2023-05-27T08:40:03;16.55;;;13.20;;
60416;SDS011;46263;44.726;10.396;2023-05-27T08:42:32;18.67;;;13.30;;
60416;SDS011;46263;44.726;10.396;2023-05-27T08:44:58;22.55;;;13.05;;
60416;SDS011;46263;44.726;10.396;2023-05-27T08:47:24;13.38;;;11.05;;
60416;SDS011;46263;44.726;10.396;2023-05-27T08:49:53;13.77;;;11.13;;
60416;SDS011;46263;44.726;10.396;2023-05-27T08:52:23;12.25;;;10.05;;
60416;SDS011;46263;44.726;10.396;2023-05-27T08:54:50;13.07;;;9.48;;
60416;SDS011;46263;44.726;10.396;2023-05-27T08:57:17;13.82;;;9.20;;
60416;SDS011;46263;44.726;10.396;2023-05-27T08:59:46;12.45;;;9.05;;
60416;SDS011;46263;44.726;10.396;2023-05-27T09:02:14;11.68;;;8.57;;
60416;SDS011;46263;44.726;10.396;2023-05-27T09:04:39;12.93;;;7.35;;
60416;SDS011;46263;44.726;10.396;2023-05-27T09:07:05;13.25;;;8.27;;
60416;SDS011;46263;44.726;10.396;2023-05-27T09:09:32;9.77;;;7.47;;
60416;SDS011;46263;44.726;10.396;2023-05-27T09:12:03;7.78;;;6.78;;
60416;SDS011;46263;44.726;10.396;2023-05-27T09:14:29;8.33;;;7.40;;
60416;SDS011;46263;44.726;10.396;2023-05-27T09:16:55;10.95;;;7.22;;
60416;SDS011;46263;44.726;10.396;2023-05-27T09:19:21;9.13;;;7.18;;
60416;SDS011;46263;44.726;10.396;2023-05-27T09:21:53;10.43;;;6.43;;
60416;SDS011;46263;44.726;10.396;2023-05-27T09:24:19;11.45;;;7.65;;
60416;SDS011;46263;44.726;10.396;2023-05-27T09:26:44;9.35;;;6.95;;
60416;SDS011;46263;44.726;10.396;2023-05-27T09:29:10;9.90;;;6.65;;
60416;SDS011;46263;44.726;10.396;2023-05-27T09:31:39;7.85;;;6.47;;
60416;SDS011;46263;44.726;10.396;2023-05-27T09:34:13;9.52;;;6.78;;
60416;SDS011;46263;44.726;10.396;2023-05-27T09:36:47;7.40;;;6.30;;
60416;SDS011;46263;44.726;10.396;2023-05-27T09:39:15;8.55;;;6.78;;
60416;SDS011;46263;44.726;10.396;2023-05-27T09:41:41;7.70;;;6.90;;
60416;SDS011;46263;44.726;10.396;2023-05-27T09:44:07;6.93;;;6.10;;
60416;SDS011;46263;44.726;10.396;2023-05-27T09:46:34;10.05;;;6.53;;
60416;SDS011;46263;44.726;10.396;2023-05-27T09:49:00;10.38;;;5.68;;
60416;SDS011;46263;44.726;10.396;2023-05-27T09:51:28;8.20;;;5.63;;
60416;SDS011;46263;44.726;10.396;2023-05-27T09:53:55;10.40;;;5.95;;
60416;SDS011;46263;44.726;10.396;2023-05-27T09:56:27;6.72;;;5.32;;
60416;SDS011;46263;44.726;10.396;2023-05-27T09:58:54;8.20;;;6.00;;
60416;SDS011;46263;44.726;10.396;2023-05-27T10:01:24;7.07;;;5.65;;
60416;SDS011;46263;44.726;10.396;2023-05-27T10:03:53;14.75;;;5.97;;
60416;SDS011;46263;44.726;10.396;2023-05-27T10:06:19;10.15;;;5.60;;
60416;SDS011;46263;44.726;10.396;2023-05-27T10:08:45;6.50;;;5.22;;
60416;SDS011;46263;44.726;10.396;2023-05-27T10:11:11;7.65;;;5.60;;
60416;SDS011;46263;44.726;10.396;2023-05-27T10:13:37;6.45;;;5.55;;
60416;SDS011;46263;44.726;10.396;2023-05-27T10:16:03;6.28;;;5.57;;
60416;SDS011;46263;44.726;10.396;2023-05-27T10:18:29;6.97;;;5.63;;
60416;SDS011;46263;44.726;10.396;2023-05-27T10:20:58;9.32;;;5.55;;
60416;SDS011;46263;44.726;10.396;2023-05-27T10:23:27;7.60;;;5.22;;
60416;SDS011;46263;44.726;10.396;2023-05-27T10:26:00;7.15;;;6.07;;
60416;SDS011;46263;44.726;10.396;2023-05-27T10:28:31;6.80;;;5.57;;
60416;SDS011;46263;44.726;10.396;2023-05-27T10:33:37;9.18;;;5.10;;
60416;SDS011;46263;44.726;10.396;2023-05-27T10:36:07;9.88;;;5.43;;
60416;SDS011;46263;44.726;10.396;2023-05-27T10:38:37;8.73;;;5.32;;
60416;SDS011;46263;44.726;10.396;2023-05-27T10:41:05;5.80;;;5.20;;
60416;SDS011;46263;44.726;10.396;2023-05-27T10:43:31;10.63;;;5.07;;
60416;SDS011;46263;44.726;10.396;2023-05-27T10:46:08;9.93;;;5.43;;
60416;SDS011;46263;44.726;10.396;2023-05-27T10:48:36;8.05;;;5.45;;
60416;SDS011;46263;44.726;10.396;2023-05-27T10:51:05;7.85;;;5.70;;
60416;SDS011;46263;44.726;10.396;2023-05-27T10:53:31;5.45;;;4.95;;
60416;SDS011;46263;44.726;10.396;2023-05-27T10:55:59;7.22;;;5.22;;
60416;SDS011;46263;44.726;10.396;2023-05-27T10:58:25;7.18;;;5.57;;
60416;SDS011;46263;44.726;10.396;2023-05-27T11:00:51;8.10;;;6.63;;
60416;SDS011;46263;44.726;10.396;2023-05-27T11:08:30;7.90;;;6.07;;
60416;SDS011;46263;44.726;10.396;2023-05-27T11:11:03;6.13;;;5.20;;
60416;SDS011;46263;44.726;10.396;2023-05-27T11:16:02;6.53;;;5.50;;
60416;SDS011;46263;44.726;10.396;2023-05-27T11:19:02;7.03;;;5.10;;
60416;SDS011;46263;44.726;10.396;2023-05-27T11:21:21;7.70;;;5.50;;
60416;SDS011;46263;44.726;10.396;2023-05-27T11:23:47;7.65;;;5.60;;
60416;SDS011;46263;44.726;10.396;2023-05-27T11:28:52;5.95;;;4.80;;
60416;SDS011;46263;44.726;10.396;2023-05-27T11:31:26;6.82;;;5.45;;
60416;SDS011;46263;44.726;10.396;2023-05-27T11:33:53;6.97;;;5.82;;
60416;SDS011;46263;44.726;10.396;2023-05-27T11:36:19;5.80;;;5.20;;
60416;SDS011;46263;44.726;10.396;2023-05-27T11:38:53;6.63;;;6.03;;
60416;SDS011;46263;44.726;10.396;2023-05-27T11:41:23;7.85;;;5.28;;
60416;SDS011;46263;44.726;10.396;2023-05-27T11:46:22;8.80;;;5.28;;
60416;SDS011;46263;44.726;10.396;2023-05-27T11:48:48;7.07;;;4.97;;
60416;SDS011;46263;44.726;10.396;2023-05-27T11:51:14;8.85;;;4.97;;
60416;SDS011;46263;44.726;10.396;2023-05-27T11:53:46;7.57;;;5.63;;
60416;SDS011;46263;44.726;10.396;2023-05-27T11:56:12;7.50;;;4.90;;
60416;SDS011;46263;44.726;10.396;2023-05-27T11:58:38;7.00;;;5.07;;
60416;SDS011;46263;44.726;10.396;2023-05-27T12:01:04;5.68;;;4.50;;
60416;SDS011;46263;44.726;10.396;2023-05-27T12:03:30;5.50;;;4.70;;
60416;SDS011;46263;44.726;10.396;2023-05-27T12:05:56;5.47;;;4.70;;
60416;SDS011;46263;44.726;10.396;2023-05-27T12:08:22;5.60;;;4.55;;
60416;SDS011;46263;44.726;10.396;2023-05-27T12:10:48;7.68;;;4.82;;
60416;SDS011;46263;44.726;10.396;2023-05-27T12:13:18;6.30;;;4.95;;
60416;SDS011;46263;44.726;10.396;2023-05-27T12:15:46;8.35;;;4.50;;
60416;SDS011;46263;44.726;10.396;2023-05-27T12:18:11;7.38;;;5.25;;
60416;SDS011;46263;44.726;10.396;2023-05-27T12:20:37;8.98;;;5.20;;
60416;SDS011;46263;44.726;10.396;2023-05-27T12:23:02;5.20;;;4.55;;
60416;SDS011;46263;44.726;10.396;2023-05-27T12:25:28;6.00;;;5.05;;
60416;SDS011;46263;44.726;10.396;2023-05-27T12:27:53;6.22;;;5.20;;
60416;SDS011;46263;44.726;10.396;2023-05-27T12:30:18;5.25;;;4.53;;
60416;SDS011;46263;44.726;10.396;2023-05-27T12:32:44;6.68;;;5.05;;
60416;SDS011;46263;44.726;10.396;2023-05-27T12:35:09;5.53;;;4.63;;
60416;SDS011;46263;44.726;10.396;2023-05-27T12:37:35;7.60;;;4.65;;
60416;SDS011;46263;44.726;10.396;2023-05-27T12:40:00;4.95;;;4.00;;
60416;SDS011;46263;44.726;10.396;2023-05-27T12:42:29;5.93;;;4.30;;
60416;SDS011;46263;44.726;10.396;2023-05-27T12:44:55;6.90;;;4.82;;
60416;SDS011;46263;44.726;10.396;2023-05-27T12:47:20;5.30;;;4.80;;
60416;SDS011;46263;44.726;10.396;2023-05-27T12:49:46;6.30;;;4.63;;
60416;SDS011;46263;44.726;10.396;2023-05-27T12:52:11;5.50;;;4.78;;
60416;SDS011;46263;44.726;10.396;2023-05-27T12:54:37;5.80;;;4.68;;
60416;SDS011;46263;44.726;10.396;2023-05-27T12:57:03;5.28;;;4.78;;
60416;SDS011;46263;44.726;10.396;2023-05-27T12:59:32;8.18;;;4.40;;
60416;SDS011;46263;44.726;10.396;2023-05-27T13:01:58;6.40;;;4.57;;
60416;SDS011;46263;44.726;10.396;2023-05-27T13:04:24;5.10;;;4.60;;
60416;SDS011;46263;44.726;10.396;2023-05-27T13:06:49;8.27;;;4.47;;
60416;SDS011;46263;44.726;10.396;2023-05-27T13:09:15;5.07;;;4.13;;
60416;SDS011;46263;44.726;10.396;2023-05-27T13:11:41;7.93;;;4.57;;
60416;SDS011;46263;44.726;10.396;2023-05-27T13:14:07;7.65;;;4.80;;
60416;SDS011;46263;44.726;10.396;2023-05-27T13:16:33;7.55;;;5.03;;
60416;SDS011;46263;44.726;10.396;2023-05-27T13:18:58;6.35;;;4.32;;
60416;SDS011;46263;44.726;10.396;2023-05-27T13:21:24;5.25;;;4.75;;
60416;SDS011;46263;44.726;10.396;2023-05-27T13:23:49;6.30;;;4.65;;
60416;SDS011;46263;44.726;10.396;2023-05-27T13:26:15;6.10;;;4.97;;
60416;SDS011;46263;44.726;10.396;2023-05-27T13:28:40;7.03;;;5.07;;
60416;SDS011;46263;44.726;10.396;2023-05-27T13:31:06;7.10;;;4.50;;
60416;SDS011;46263;44.726;10.396;2023-05-27T13:33:32;9.20;;;4.82;;
60416;SDS011;46263;44.726;10.396;2023-05-27T13:35:58;5.93;;;4.47;;
60416;SDS011;46263;44.726;10.396;2023-05-27T13:38:23;6.40;;;4.32;;
60416;SDS011;46263;44.726;10.396;2023-05-27T13:40:49;5.22;;;4.50;;
60416;SDS011;46263;44.726;10.396;2023-05-27T13:43:15;6.22;;;4.82;;
60416;SDS011;46263;44.726;10.396;2023-05-27T13:45:41;5.05;;;4.22;;
60416;SDS011;46263;44.726;10.396;2023-05-27T13:48:07;5.80;;;4.70;;
60416;SDS011;46263;44.726;10.396;2023-05-27T13:50:33;6.30;;;4.32;;
60416;SDS011;46263;44.726;10.396;2023-05-27T13:53:00;5.15;;;4.68;;
60416;SDS011;46263;44.726;10.396;2023-05-27T13:55:25;5.30;;;4.78;;
60416;SDS011;46263;44.726;10.396;2023-05-27T13:57:51;7.30;;;4.57;;
60416;SDS011;46263;44.726;10.396;2023-05-27T14:00:17;4.95;;;4.45;;
60416;SDS011;46263;44.726;10.396;2023-05-27T14:02:42;7.63;;;4.80;;
60416;SDS011;46263;44.726;10.396;2023-05-27T14:05:08;4.95;;;4.47;;
60416;SDS011;46263;44.726;10.396;2023-05-27T14:07:38;6.38;;;4.57;;
60416;SDS011;46263;44.726;10.396;2023-05-27T14:10:08;5.38;;;4.88;;
60416;SDS011;46263;44.726;10.396;2023-05-27T14:12:34;6.75;;;4.97;;
60416;SDS011;46263;44.726;10.396;2023-05-27T14:14:59;6.88;;;4.80;;
60416;SDS011;46263;44.726;10.396;2023-05-27T14:17:25;4.90;;;4.40;;
60416;SDS011;46263;44.726;10.396;2023-05-27T14:19:50;6.97;;;4.80;;
60416;SDS011;46263;44.726;10.396;2023-05-27T14:22:16;6.95;;;4.57;;
60416;SDS011;46263;44.726;10.396;2023-05-27T14:24:41;6.47;;;4.68;;
60416;SDS011;46263;44.726;10.396;2023-05-27T14:27:07;8.38;;;5.00;;
60416;SDS011;46263;44.726;10.396;2023-05-27T14:29:33;7.35;;;5.00;;
60416;SDS011;46263;44.726;10.396;2023-05-27T14:31:58;5.93;;;4.28;;
60416;SDS011;46263;44.726;10.396;2023-05-27T14:34:24;4.32;;;3.90;;
60416;SDS011;46263;44.726;10.396;2023-05-27T14:36:50;5.28;;;3.83;;
60416;SDS011;46263;44.726;10.396;2023-05-27T14:39:15;5.85;;;3.83;;
60416;SDS011;46263;44.726;10.396;2023-05-27T14:41:41;5.40;;;4.15;;
60416;SDS011;46263;44.726;10.396;2023-05-27T14:44:07;5.40;;;4.03;;